createdAt,value
2023-03-01T00:02:59.045Z,98847.00
2023-03-01T00:07:00.139Z,98847.00
2023-03-01T00:11:04.138Z,98857.00
2023-03-01T00:15:05.999Z,98867.00
2023-03-01T00:19:09.738Z,98857.00
2023-03-01T00:23:10.829Z,98857.00
2023-03-01T00:27:12.400Z,98853.00
2023-03-01T00:31:15.749Z,98854.00
2023-03-01T00:35:16.843Z,98841.00
2023-03-01T00:39:17.889Z,98845.00
2023-03-01T00:43:19.476Z,98830.00
2023-03-01T00:47:20.576Z,98826.00
2023-03-01T00:51:25.548Z,98822.00
2023-03-01T00:55:26.890Z,98827.00
2023-03-01T00:59:27.850Z,98821.00
2023-03-01T01:03:28.979Z,98825.00
2023-03-01T01:07:30.150Z,98815.00
2023-03-01T01:11:31.768Z,98806.00
2023-03-01T01:15:36.488Z,98801.00
2023-03-01T01:19:37.423Z,98793.00
2023-03-01T01:23:40.110Z,98797.00
2023-03-01T01:27:41.197Z,98788.00
2023-03-01T01:31:43.728Z,98786.00
2023-03-01T01:35:46.298Z,98781.00
2023-03-01T01:39:47.313Z,98766.00
2023-03-01T01:43:51.997Z,98765.00
2023-03-01T01:47:56.721Z,98781.00
2023-03-01T01:52:01.727Z,98782.00
2023-03-01T01:56:03.937Z,98784.00
2023-03-01T02:00:14.686Z,98779.00
2023-03-01T02:04:15.892Z,98787.00
2023-03-01T02:08:19.999Z,98786.00
2023-03-01T02:12:24.928Z,98787.00
2023-03-01T02:16:26.986Z,98792.00
2023-03-01T02:20:37.089Z,98775.00
2023-03-01T02:24:59.074Z,98770.00
2023-03-01T02:29:00.374Z,98788.00
2023-03-01T02:33:04.174Z,98765.00
2023-03-01T02:37:09.115Z,98753.00
2023-03-01T02:41:13.905Z,98755.00
2023-03-01T02:45:14.991Z,98742.00
2023-03-01T02:49:19.800Z,98730.00
2023-03-01T02:53:30.475Z,98733.00
2023-03-01T02:57:33.524Z,98610.00
2023-03-01T03:01:37.348Z,98730.00
2023-03-01T03:05:38.429Z,98730.00
2023-03-01T03:09:39.539Z,98724.00
2023-03-01T03:13:42.550Z,98720.00
2023-03-01T03:17:45.250Z,98715.00
2023-03-01T03:21:46.994Z,98713.00
2023-03-01T03:25:49.514Z,98707.00
2023-03-01T03:29:50.601Z,98695.00
2023-03-01T03:33:51.847Z,98688.00
2023-03-01T03:38:06.161Z,98683.00
2023-03-01T03:42:07.300Z,98687.00
2023-03-01T03:46:08.938Z,98682.00
2023-03-01T03:50:11.418Z,98683.00
2023-03-01T03:54:12.506Z,98693.00
2023-03-01T03:58:13.638Z,98708.00
2023-03-01T04:02:16.574Z,98681.00
2023-03-01T04:06:17.596Z,98677.00
2023-03-01T04:10:19.352Z,98682.00
2023-03-01T04:14:20.298Z,98680.00
2023-03-01T04:18:23.364Z,98691.00
2023-03-01T04:22:26.501Z,98684.00
2023-03-01T04:26:27.769Z,98685.00
2023-03-01T04:30:28.716Z,98688.00
2023-03-01T04:34:30.227Z,98681.00
2023-03-01T04:38:31.266Z,98693.00
2023-03-01T04:42:32.324Z,98673.00
2023-03-01T04:46:33.558Z,98669.00
2023-03-01T04:50:35.593Z,98671.00
2023-03-01T04:54:36.983Z,98670.00
2023-03-01T04:58:38.279Z,98670.00
2023-03-01T05:02:39.355Z,98695.00
2023-03-01T05:06:41.509Z,98661.00
2023-03-01T05:10:42.698Z,98662.00
2023-03-01T05:14:43.814Z,98660.00
2023-03-01T05:18:46.500Z,98661.00
2023-03-01T05:22:47.616Z,98682.00
2023-03-01T05:26:48.944Z,98665.00
2023-03-01T05:30:52.036Z,98656.00
2023-03-01T05:34:54.941Z,98661.00
2023-03-01T05:38:56.301Z,98660.00
2023-03-01T05:42:57.701Z,98654.00
2023-03-01T05:46:58.998Z,98649.00
2023-03-01T05:51:01.239Z,98673.00
2023-03-01T05:55:02.251Z,98660.00
2023-03-01T05:59:05.442Z,98644.00
2023-03-01T06:03:06.387Z,98673.00
2023-03-01T06:07:07.533Z,98654.00
2023-03-01T06:11:08.714Z,98656.00
2023-03-01T06:15:11.968Z,98648.00
2023-03-01T06:19:13.417Z,98647.00
2023-03-01T06:23:14.612Z,98658.00
2023-03-01T06:27:16.242Z,98666.00
2023-03-01T06:31:18.237Z,98657.00
2023-03-01T06:35:20.198Z,98659.00
2023-03-01T06:39:21.343Z,98656.00
2023-03-01T06:43:23.892Z,98652.00
2023-03-01T06:47:24.865Z,98654.00
2023-03-01T06:51:26.506Z,98656.00
2023-03-01T06:55:27.633Z,98640.00
2023-03-01T06:59:28.924Z,98478.00
2023-03-01T07:07:31.360Z,98642.00
2023-03-01T07:11:32.762Z,98640.00
2023-03-01T07:15:33.728Z,98646.00
2023-03-01T07:19:34.978Z,98631.00
2023-03-01T07:23:36.197Z,98633.00
2023-03-01T07:27:37.441Z,98641.00
2023-03-01T07:31:38.623Z,98614.00
2023-03-01T07:35:39.837Z,98631.00
2023-03-01T07:39:41.316Z,98629.00
2023-03-01T07:43:42.564Z,98627.00
2023-03-01T07:47:43.562Z,98642.00
2023-03-01T07:51:44.534Z,98633.00
2023-03-01T07:55:45.629Z,98637.00
2023-03-01T07:59:46.681Z,98622.00
2023-03-01T08:03:48.344Z,98622.00
2023-03-01T08:07:49.648Z,98635.00
2023-03-01T08:11:51.277Z,98621.00
2023-03-01T08:15:52.780Z,98629.00
2023-03-01T08:19:53.778Z,98637.00
2023-03-01T08:23:54.955Z,98629.00
2023-03-01T08:27:55.891Z,98617.00
2023-03-01T08:31:59.491Z,98624.00
2023-03-01T08:36:07.720Z,98619.00
2023-03-01T08:40:10.510Z,98629.00
2023-03-01T08:44:14.521Z,98626.00
2023-03-01T08:48:15.594Z,98608.00
2023-03-01T08:52:16.700Z,98603.00
2023-03-01T08:56:18.963Z,98598.00
2023-03-01T09:00:20.665Z,98594.00
2023-03-01T09:04:21.866Z,98587.00
2023-03-01T09:08:23.242Z,98595.00
2023-03-01T09:12:25.477Z,98596.00
2023-03-01T09:16:26.640Z,98591.00
2023-03-01T09:20:27.764Z,98588.00
2023-03-01T09:24:29.136Z,98600.00
2023-03-01T09:28:30.527Z,98586.00
2023-03-01T09:32:31.693Z,98579.00
2023-03-01T09:36:34.197Z,98575.00
2023-03-01T09:40:35.595Z,98563.00
2023-03-01T09:44:40.466Z,98559.00
2023-03-01T09:49:00.780Z,98552.00
2023-03-01T09:53:08.456Z,98568.00
2023-03-01T09:57:21.919Z,98568.00
2023-03-01T10:01:35.004Z,98558.00
2023-03-01T10:05:52.114Z,98562.00
2023-03-01T10:09:53.442Z,98565.00
2023-03-01T10:14:07.598Z,98552.00
2023-03-01T10:18:21.700Z,98560.00
2023-03-01T10:22:29.042Z,98552.00
2023-03-01T10:26:34.249Z,98549.00
2023-03-01T10:30:39.774Z,98541.00
2023-03-01T10:34:41.768Z,98544.00
2023-03-01T10:38:54.945Z,98539.00
2023-03-01T10:42:59.157Z,98534.00
2023-03-01T10:47:04.494Z,98538.00
2023-03-01T10:51:08.002Z,98529.00
2023-03-01T10:55:27.576Z,98528.00
2023-03-01T10:59:38.338Z,98518.00
2023-03-01T11:03:39.999Z,98522.00
2023-03-01T11:07:50.978Z,98507.00
2023-03-01T11:11:56.822Z,98515.00
2023-03-01T11:16:03.712Z,98495.00
2023-03-01T11:20:14.775Z,98497.00
2023-03-01T11:24:17.429Z,98480.00
2023-03-01T11:28:20.038Z,98469.00
2023-03-01T11:32:25.097Z,98458.00
2023-03-01T11:36:46.679Z,98474.00
2023-03-01T11:41:04.311Z,98474.00
2023-03-01T11:45:12.428Z,98471.00
2023-03-01T11:49:23.333Z,98460.00
2023-03-01T11:53:45.059Z,98461.00
2023-03-01T11:58:06.704Z,98452.00
2023-03-01T12:02:30.176Z,98438.00
2023-03-01T12:06:41.267Z,98414.00
2023-03-01T12:10:50.588Z,98430.00
2023-03-01T12:14:55.492Z,98422.00
2023-03-01T12:19:03.266Z,98425.00
2023-03-01T12:23:28.053Z,98403.00
2023-03-01T12:27:41.951Z,98396.00
2023-03-01T12:32:19.927Z,98402.00
2023-03-01T12:36:25.183Z,98377.00
2023-03-01T12:40:41.960Z,98382.00
2023-03-01T12:45:20.413Z,98388.00
2023-03-01T12:49:31.686Z,98381.00
2023-03-01T12:53:39.648Z,98381.00
2023-03-01T12:57:47.434Z,98387.00
2023-03-01T13:02:01.608Z,98388.00
2023-03-01T13:06:15.197Z,98370.00
2023-03-01T13:10:20.727Z,98351.00
2023-03-01T13:14:25.845Z,98341.00
2023-03-01T13:18:30.048Z,98359.00
2023-03-01T13:22:34.390Z,98347.00
2023-03-01T13:26:39.594Z,98358.00
2023-03-01T13:30:43.458Z,98368.00
2023-03-01T13:34:48.308Z,98347.00
2023-03-01T13:38:59.062Z,98359.00
2023-03-01T13:43:05.907Z,98338.00
2023-03-01T13:47:15.187Z,98320.00
2023-03-01T13:51:17.243Z,98314.00
2023-03-01T13:55:22.920Z,98298.00
2023-03-01T13:59:26.496Z,98186.00
2023-03-01T14:03:28.938Z,98324.00
2023-03-01T14:07:30.642Z,98318.00
2023-03-01T14:12:06.235Z,98313.00
2023-03-01T14:16:14.353Z,98316.00
2023-03-01T14:20:25.418Z,98315.00
2023-03-01T14:24:27.779Z,98303.00
2023-03-01T14:28:33.770Z,98302.00
2023-03-01T14:32:35.842Z,98299.00
2023-03-01T14:36:37.514Z,98303.00
2023-03-01T14:40:39.030Z,98301.00
2023-03-01T14:44:43.746Z,98285.00
2023-03-01T14:48:44.862Z,98289.00
2023-03-01T14:52:48.893Z,98290.00
2023-03-01T14:56:52.011Z,98286.00
2023-03-01T15:00:59.743Z,98279.00
2023-03-01T15:05:07.323Z,98299.00
2023-03-01T15:09:15.629Z,98280.00
2023-03-01T15:13:25.844Z,98293.00
2023-03-01T15:17:39.379Z,98282.00
2023-03-01T15:21:43.036Z,98288.00
2023-03-01T15:25:45.516Z,98285.00
2023-03-01T15:30:02.371Z,98287.00
2023-03-01T15:34:12.801Z,98283.00
2023-03-01T15:38:33.028Z,98270.00
2023-03-01T15:42:36.935Z,98273.00
2023-03-01T15:46:38.371Z,98258.00
2023-03-01T15:50:41.134Z,98285.00
2023-03-01T15:54:42.640Z,98296.00
2023-03-01T15:58:43.871Z,98320.00
2023-03-01T16:02:45.923Z,98301.00
2023-03-01T16:06:49.982Z,98307.00
2023-03-01T16:10:53.200Z,98305.00
2023-03-01T16:14:54.670Z,98310.00
2023-03-01T16:18:57.415Z,98312.00
2023-03-01T16:23:04.604Z,98315.00
2023-03-01T16:27:05.980Z,98312.00
2023-03-01T16:31:07.678Z,98302.00
2023-03-01T16:35:12.046Z,98297.00
2023-03-01T16:39:13.229Z,98304.00
2023-03-01T16:43:14.636Z,98294.00
2023-03-01T16:47:15.950Z,98296.00
2023-03-01T16:51:17.277Z,98294.00
2023-03-01T16:55:18.722Z,98303.00
2023-03-01T16:59:20.042Z,98289.00
2023-03-01T17:03:22.990Z,98305.00
2023-03-01T17:07:24.104Z,98302.00
2023-03-01T17:11:25.792Z,98311.00
2023-03-01T17:15:26.910Z,98307.00
2023-03-01T17:19:28.347Z,98333.00
2023-03-01T17:23:30.608Z,98322.00
2023-03-01T17:27:33.996Z,98321.00
2023-03-01T17:31:35.201Z,98304.00
2023-03-01T17:35:37.466Z,98311.00
2023-03-01T17:39:39.043Z,98300.00
2023-03-01T17:43:40.337Z,98301.00
2023-03-01T17:47:41.474Z,98281.00
2023-03-01T17:51:43.869Z,98296.00
2023-03-01T17:55:45.669Z,98314.00
2023-03-01T17:59:47.057Z,98321.00
2023-03-01T18:03:50.792Z,98332.00
2023-03-01T18:07:52.440Z,98326.00
2023-03-01T18:11:54.250Z,98336.00
2023-03-01T18:15:57.452Z,98330.00
2023-03-01T18:19:59.066Z,98335.00
2023-03-01T18:24:01.262Z,98329.00
2023-03-01T18:28:03.074Z,98324.00
2023-03-01T18:32:05.315Z,98333.00
2023-03-01T18:36:12.558Z,98319.00
2023-03-01T18:40:13.942Z,98320.00
2023-03-01T18:44:16.256Z,98312.00
2023-03-01T18:48:17.486Z,98300.00
2023-03-01T18:52:18.941Z,98313.00
2023-03-01T18:56:20.571Z,98307.00
2023-03-01T19:00:22.755Z,98291.00
2023-03-01T19:04:24.413Z,98278.00
2023-03-01T19:08:26.043Z,98275.00
2023-03-01T19:12:28.048Z,98287.00
2023-03-01T19:16:32.158Z,98284.00
2023-03-01T19:20:33.746Z,98284.00
2023-03-01T19:24:35.477Z,98313.00
2023-03-01T19:28:39.603Z,98306.00
2023-03-01T19:32:40.966Z,98300.00
2023-03-01T19:36:43.734Z,98301.00
2023-03-01T19:40:44.964Z,98292.00
2023-03-01T19:44:46.252Z,98292.00
2023-03-01T19:48:49.890Z,98287.00
2023-03-01T19:52:51.140Z,98295.00
2023-03-01T19:56:52.865Z,98302.00
2023-03-01T20:00:58.416Z,98293.00
2023-03-01T20:04:59.773Z,98308.00
2023-03-01T20:09:15.277Z,98312.00
2023-03-01T20:13:06.831Z,98309.00
2023-03-01T20:17:08.089Z,98315.00
2023-03-01T20:21:21.485Z,98309.00
2023-03-01T20:25:12.801Z,98307.00
2023-03-01T20:29:13.903Z,98319.00
2023-03-01T20:33:15.134Z,98301.00
2023-03-01T20:37:16.695Z,98332.00
2023-03-01T20:41:19.088Z,98319.00
2023-03-01T20:45:22.090Z,98305.00
2023-03-01T20:49:23.608Z,98311.00
2023-03-01T20:53:24.789Z,98312.00
2023-03-01T20:57:26.071Z,98315.00
2023-03-01T21:01:27.150Z,98309.00
2023-03-01T21:05:28.237Z,98311.00
2023-03-01T21:09:29.469Z,98316.00
2023-03-01T21:13:32.126Z,98316.00
2023-03-01T21:17:33.672Z,98316.00
2023-03-01T21:21:34.939Z,98308.00
2023-03-01T21:25:35.998Z,98315.00
2023-03-01T21:29:39.340Z,98317.00
2023-03-01T21:33:46.589Z,98312.00
2023-03-01T21:37:48.281Z,98311.00
2023-03-01T21:41:50.036Z,98303.00
2023-03-01T21:45:51.411Z,98305.00
2023-03-01T21:49:52.486Z,98305.00
2023-03-01T21:53:55.895Z,98303.00
2023-03-01T21:57:57.064Z,98300.00
2023-03-01T22:02:00.018Z,98298.00
2023-03-01T22:06:02.002Z,98295.00
2023-03-01T22:10:03.299Z,98301.00
2023-03-01T22:14:05.154Z,98294.00
2023-03-01T22:18:07.133Z,98304.00
2023-03-01T22:22:08.289Z,98307.00
2023-03-01T22:26:21.993Z,98299.00
2023-03-01T22:30:23.321Z,98304.00
2023-03-01T22:34:24.518Z,98293.00
2023-03-01T22:38:25.823Z,98293.00
2023-03-01T22:42:28.768Z,98298.00
2023-03-01T22:46:30.377Z,98284.00
2023-03-01T22:50:31.666Z,98281.00
2023-03-01T22:54:32.923Z,98296.00
2023-03-01T22:58:33.988Z,98282.00
2023-03-01T23:02:35.159Z,98285.00
2023-03-01T23:06:38.412Z,98285.00
2023-03-01T23:10:40.570Z,98270.00
2023-03-01T23:14:42.711Z,98269.00
2023-03-01T23:18:44.800Z,98274.00
2023-03-01T23:22:45.938Z,98266.00
2023-03-01T23:26:49.772Z,98271.00
2023-03-01T23:30:57.465Z,98256.00
2023-03-01T23:34:58.613Z,98256.00
2023-03-01T23:39:03.617Z,98251.00
2023-03-01T23:43:05.239Z,98246.00
2023-03-01T23:47:06.418Z,98250.00
2023-03-01T23:51:08.007Z,98256.00
2023-03-01T23:55:10.848Z,98256.00
2023-03-01T23:59:15.695Z,98261.00
